createdAt,value
2019-02-14T00:01:24.185Z,3.99
2019-02-14T00:04:13.166Z,3.70
2019-02-14T00:06:59.910Z,3.57
2019-02-14T00:12:33.059Z,3.31
2019-02-14T00:15:00.761Z,3.19
2019-02-14T00:17:47.500Z,3.11
2019-02-14T00:20:34.133Z,3.01
2019-02-14T00:23:35.624Z,2.96
2019-02-14T00:25:53.299Z,2.96
2019-02-14T00:28:20.965Z,2.95
2019-02-14T00:31:07.642Z,2.91
2019-02-14T00:33:35.381Z,2.91
2019-02-14T00:36:03.147Z,2.91
2019-02-14T00:38:30.905Z,2.91
2019-02-14T00:40:58.608Z,2.85
2019-02-14T00:43:45.025Z,2.82
2019-02-14T00:46:31.761Z,2.77
2019-02-14T00:51:47.375Z,2.64
2019-02-14T00:54:15.015Z,2.64
2019-02-14T00:56:42.709Z,2.57
2019-02-14T00:59:10.581Z,2.56
2019-02-14T01:01:56.959Z,2.51
2019-02-14T01:04:43.389Z,2.46
2019-02-14T01:07:11.079Z,2.41
2019-02-14T01:09:57.525Z,2.41
2019-02-14T01:12:25.400Z,2.45
2019-02-14T01:17:26.057Z,2.50
2019-02-14T01:19:53.731Z,2.50
2019-02-14T01:22:21.471Z,2.50
2019-02-14T01:25:07.874Z,2.46
2019-02-14T01:27:35.580Z,2.46
2019-02-14T01:32:49.803Z,2.32
2019-02-14T01:35:41.789Z,2.27
2019-02-14T01:38:05.515Z,2.27
2019-02-14T01:40:53.448Z,2.22
2019-02-14T01:43:21.203Z,2.16
2019-02-14T01:51:21.707Z,2.17
2019-02-14T01:53:28.656Z,2.15
2019-02-14T02:01:18.981Z,2.13
2019-02-14T02:04:05.412Z,2.13
2019-02-14T02:06:52.803Z,2.11
2019-02-14T02:09:20.570Z,2.11
2019-02-14T02:12:07.038Z,2.04
2019-02-14T02:14:34.847Z,1.97
2019-02-14T02:17:21.676Z,1.81
2019-02-14T02:22:42.850Z,1.80
2019-02-14T02:25:10.529Z,1.82
2019-02-14T02:27:38.305Z,1.84
2019-02-14T02:30:25.021Z,1.83
2019-02-14T02:33:11.416Z,1.79
2019-02-14T02:38:14.108Z,1.74
2019-02-14T02:40:42.281Z,1.76
2019-02-14T02:43:29.005Z,1.78
2019-02-14T02:45:56.758Z,1.78
2019-02-14T02:48:43.500Z,1.83
2019-02-14T02:51:44.075Z,1.84
2019-02-14T02:56:37.074Z,1.85
2019-02-14T02:59:26.452Z,1.86
2019-02-14T03:02:12.910Z,1.89
2019-02-14T03:04:59.560Z,1.84
2019-02-14T03:07:27.405Z,1.84
2019-02-14T03:09:55.170Z,1.66
2019-02-14T03:12:41.919Z,1.60
2019-02-14T03:15:28.354Z,1.59
2019-02-14T03:18:15.049Z,1.57
2019-02-14T03:21:01.518Z,1.53
2019-02-14T03:23:29.251Z,1.53
2019-02-14T03:26:15.739Z,1.42
2019-02-14T03:28:43.417Z,1.42
2019-02-14T03:31:30.320Z,1.42
2019-02-14T03:33:57.989Z,1.42
2019-02-14T03:36:44.712Z,1.42
2019-02-14T03:39:31.155Z,1.36
2019-02-14T03:42:17.839Z,1.30
2019-02-14T03:44:48.139Z,1.30
2019-02-14T03:47:15.834Z,1.22
2019-02-14T03:50:02.575Z,1.20
2019-02-14T03:52:48.962Z,1.21
2019-02-14T03:55:35.660Z,1.25
2019-02-14T03:58:22.065Z,1.25
2019-02-14T04:00:49.664Z,1.21
2019-02-14T04:03:17.342Z,1.20
2019-02-14T04:05:46.478Z,1.18
2019-02-14T04:08:14.102Z,1.17
2019-02-14T04:11:00.558Z,1.18
2019-02-14T04:13:46.939Z,1.21
2019-02-14T04:16:14.571Z,1.21
2019-02-14T04:19:01.012Z,1.18
2019-02-14T04:21:47.445Z,1.13
2019-02-14T04:24:33.910Z,1.04
2019-02-14T04:27:01.528Z,0.95
2019-02-14T04:29:29.282Z,0.95
2019-02-14T04:31:56.840Z,0.88
2019-02-14T04:34:24.532Z,0.83
2019-02-14T04:36:53.770Z,0.83
2019-02-14T04:39:40.202Z,0.66
2019-02-14T04:42:07.879Z,0.66
2019-02-14T04:44:54.344Z,0.57
2019-02-14T04:47:22.039Z,0.52
2019-02-14T04:50:10.404Z,0.43
2019-02-14T04:52:38.081Z,0.43
2019-02-14T04:55:24.767Z,0.39
2019-02-14T04:57:52.408Z,0.39
2019-02-14T05:00:20.072Z,0.38
2019-02-14T05:02:47.900Z,0.37
2019-02-14T05:05:34.331Z,0.38
2019-02-14T05:08:02.118Z,0.36
2019-02-14T05:10:48.501Z,0.35
2019-02-14T05:13:16.183Z,0.35
2019-02-14T05:15:45.431Z,0.35
2019-02-14T05:18:31.888Z,0.32
2019-02-14T05:20:59.640Z,0.32
2019-02-14T05:23:27.187Z,0.31
2019-02-14T05:26:13.634Z,0.28
2019-02-14T05:28:41.362Z,0.28
2019-02-14T05:31:27.831Z,0.28
2019-02-14T05:34:14.239Z,0.29
2019-02-14T05:37:00.676Z,0.31
2019-02-14T05:39:47.134Z,0.31
2019-02-14T05:42:33.545Z,0.31
2019-02-14T05:45:01.174Z,0.31
2019-02-14T05:47:47.542Z,0.31
2019-02-14T05:50:15.218Z,0.33
2019-02-14T05:53:01.615Z,0.42
2019-02-14T05:55:48.064Z,0.43
2019-02-14T05:58:34.440Z,0.39
2019-02-14T06:03:55.109Z,0.33
2019-02-14T06:06:22.781Z,0.33
2019-02-14T06:11:57.164Z,0.24
2019-02-14T06:14:46.084Z,0.20
2019-02-14T06:17:32.545Z,0.19
2019-02-14T06:20:00.302Z,0.19
2019-02-14T06:22:48.214Z,0.18
2019-02-14T06:25:15.944Z,0.18
2019-02-14T06:28:02.376Z,0.13
2019-02-14T06:30:30.505Z,0.12
2019-02-14T06:32:58.114Z,0.13
2019-02-14T06:35:44.519Z,0.13
2019-02-14T06:38:24.530Z,0.16
2019-02-14T06:41:00.231Z,0.16
2019-02-14T06:43:46.632Z,0.21
2019-02-14T06:46:33.503Z,0.23
2019-02-14T06:49:01.121Z,0.23
2019-02-14T06:51:28.709Z,0.21
2019-02-14T06:54:15.181Z,0.20
2019-02-14T06:56:42.765Z,0.18
2019-02-14T06:59:29.201Z,0.15
2019-02-14T07:01:56.825Z,0.15
2019-02-14T07:04:24.857Z,0.15
2019-02-14T07:07:18.247Z,0.18
2019-02-14T07:09:40.704Z,0.18
2019-02-14T07:12:27.173Z,0.19
2019-02-14T07:15:13.615Z,0.24
2019-02-14T07:18:00.082Z,0.29
2019-02-14T07:20:46.465Z,0.35
2019-02-14T07:23:33.192Z,0.39
2019-02-14T07:26:19.660Z,0.43
2019-02-14T07:29:06.060Z,0.43
2019-02-14T07:31:33.702Z,0.46
2019-02-14T07:34:20.083Z,0.45
2019-02-14T07:36:47.973Z,0.45
2019-02-14T07:39:18.600Z,0.47
2019-02-14T07:41:46.205Z,0.48
2019-02-14T07:44:35.117Z,0.53
2019-02-14T07:47:21.944Z,0.60
2019-02-14T07:49:52.563Z,0.60
2019-02-14T07:52:25.258Z,0.67
2019-02-14T07:55:04.017Z,0.77
2019-02-14T07:57:21.638Z,0.84
2019-02-14T08:00:08.051Z,0.94
2019-02-14T08:02:35.937Z,0.94
2019-02-14T08:05:03.491Z,1.19
2019-02-14T08:07:43.639Z,1.31
2019-02-14T08:10:02.875Z,1.45
2019-02-14T08:12:49.341Z,1.64
2019-02-14T08:15:35.769Z,1.99
2019-02-14T08:20:42.026Z,2.53
2019-02-14T08:23:09.667Z,2.69
2019-02-14T08:25:37.299Z,2.69
2019-02-14T08:28:05.300Z,2.88
2019-02-14T08:30:32.905Z,2.88
2019-02-14T08:33:00.523Z,3.27
2019-02-14T08:35:47.391Z,3.58
2019-02-14T08:38:33.818Z,3.92
2019-02-14T08:41:20.241Z,4.13
2019-02-14T08:43:47.838Z,4.23
2019-02-14T08:46:15.560Z,4.27
2019-02-14T08:49:01.994Z,4.27
2019-02-14T08:51:32.655Z,4.28
2019-02-14T08:54:20.314Z,4.28
2019-02-14T08:56:47.987Z,4.38
2019-02-14T08:59:34.401Z,4.55
2019-02-14T09:02:21.937Z,4.86
2019-02-14T09:05:08.399Z,4.96
2019-02-14T09:07:54.369Z,4.96
2019-02-14T09:10:05.594Z,5.09
2019-02-14T09:12:52.027Z,5.29
2019-02-14T09:15:19.874Z,5.29
2019-02-14T09:17:47.472Z,5.43
2019-02-14T09:20:15.124Z,5.61
2019-02-14T09:22:52.144Z,5.61
2019-02-14T09:25:19.765Z,5.69
2019-02-14T09:27:47.349Z,5.82
2019-02-14T09:30:18.206Z,5.82
2019-02-14T09:32:45.907Z,5.91
2019-02-14T09:35:13.473Z,6.06
2019-02-14T09:38:03.402Z,6.11
2019-02-14T09:40:29.844Z,6.11
2019-02-14T09:42:57.412Z,6.20
2019-02-14T09:51:37.035Z,6.62
2019-02-14T09:54:23.444Z,6.90
2019-02-14T09:57:13.267Z,6.90
2019-02-14T09:59:40.823Z,7.01
2019-02-14T10:02:27.291Z,7.12
2019-02-14T10:04:56.508Z,7.22
2019-02-14T10:07:55.545Z,7.60
2019-02-14T10:13:36.222Z,8.13
2019-02-14T10:16:22.548Z,9.70
2019-02-14T10:19:21.734Z,9.70
2019-02-14T10:21:38.337Z,11.70
2019-02-14T10:24:25.036Z,11.70
2019-02-14T10:26:52.992Z,14.35
2019-02-14T10:29:39.376Z,14.35
2019-02-14T10:32:09.961Z,15.46
2019-02-14T10:37:10.706Z,16.91
2019-02-14T10:39:39.094Z,17.65
2019-02-14T10:42:25.505Z,18.30
2019-02-14T10:44:53.149Z,19.04
2019-02-14T10:47:39.536Z,19.74
2019-02-14T10:53:05.874Z,21.12
2019-02-14T10:55:52.348Z,21.68
2019-02-14T10:58:20.279Z,21.68
2019-02-14T11:00:59.584Z,21.81
2019-02-14T11:03:36.601Z,22.12
2019-02-14T11:06:23.073Z,21.92
2019-02-14T11:08:50.832Z,21.41
2019-02-14T11:11:18.752Z,20.81
2019-02-14T11:14:05.210Z,20.77
2019-02-14T11:16:51.626Z,20.77
2019-02-14T11:19:19.308Z,21.27
2019-02-14T11:22:05.981Z,22.06
2019-02-14T11:24:33.954Z,22.64
2019-02-14T11:27:01.889Z,23.13
2019-02-14T11:29:29.536Z,22.71
2019-02-14T11:31:59.128Z,22.47
2019-02-14T11:34:41.090Z,22.26
2019-02-14T11:36:56.319Z,21.99
2019-02-14T11:39:26.115Z,21.66
2019-02-14T11:42:12.546Z,21.80
2019-02-14T11:44:40.154Z,21.76
2019-02-14T11:47:08.007Z,21.88
2019-02-14T11:49:54.471Z,21.94
2019-02-14T11:52:41.294Z,22.88
2019-02-14T11:55:27.734Z,22.41
2019-02-14T11:57:55.400Z,22.41
2019-02-14T12:03:12.791Z,20.25
2019-02-14T12:08:57.700Z,18.78
2019-02-14T12:11:33.036Z,19.10
2019-02-14T12:14:07.026Z,18.70
2019-02-14T12:16:34.709Z,18.33
2019-02-14T12:19:02.355Z,18.18
2019-02-14T12:21:48.782Z,18.05
2019-02-14T12:24:35.248Z,17.85
2019-02-14T12:27:21.714Z,17.57
2019-02-14T12:32:37.540Z,16.74
2019-02-14T12:35:05.159Z,16.14
2019-02-14T12:40:39.066Z,15.30
2019-02-14T12:43:09.032Z,14.53
2019-02-14T12:48:24.597Z,14.32
2019-02-14T12:51:11.017Z,14.17
2019-02-14T12:53:38.637Z,14.18
2019-02-14T12:56:06.649Z,14.18
2019-02-14T12:58:53.075Z,15.15
2019-02-14T13:01:41.201Z,15.48
2019-02-14T13:04:09.127Z,15.48
2019-02-14T13:06:36.737Z,15.95
2019-02-14T13:09:05.511Z,16.31
2019-02-14T13:11:33.339Z,16.66
2019-02-14T13:16:48.578Z,16.97
2019-02-14T13:22:13.193Z,16.70
2019-02-14T13:27:47.095Z,16.70
2019-02-14T13:30:14.695Z,16.65
2019-02-14T13:32:42.597Z,16.62
2019-02-14T13:35:10.148Z,16.55
2019-02-14T13:37:39.886Z,16.47
2019-02-14T13:40:25.861Z,16.35
2019-02-14T13:42:53.467Z,16.20
2019-02-14T13:45:39.899Z,15.97
2019-02-14T13:48:09.212Z,15.86
2019-02-14T13:50:37.179Z,15.78
2019-02-14T13:53:04.825Z,15.78
2019-02-14T13:55:32.508Z,15.58
2019-02-14T13:58:00.381Z,15.49
2019-02-14T14:00:27.991Z,15.51
2019-02-14T14:02:55.639Z,15.57
2019-02-14T14:05:42.064Z,15.73
2019-02-14T14:08:09.641Z,16.36
2019-02-14T14:10:56.198Z,16.46
2019-02-14T14:13:27.621Z,16.46
2019-02-14T14:16:27.040Z,16.58
2019-02-14T14:18:43.712Z,16.64
2019-02-14T14:21:30.201Z,16.65
2019-02-14T14:23:57.888Z,16.58
2019-02-14T14:26:44.407Z,16.57
2019-02-14T14:29:12.035Z,16.66
2019-02-14T14:31:42.009Z,16.82
2019-02-14T14:34:09.623Z,16.87
2019-02-14T14:39:11.778Z,16.88
2019-02-14T14:41:39.376Z,16.81
2019-02-14T14:44:25.823Z,16.81
2019-02-14T14:47:12.206Z,17.06
2019-02-14T14:52:13.426Z,17.64
2019-02-14T14:57:14.349Z,17.76
2019-02-14T15:00:01.215Z,17.82
2019-02-14T15:05:15.369Z,18.09
2019-02-14T15:07:43.194Z,18.19
2019-02-14T15:10:12.342Z,18.19
2019-02-14T15:12:40.137Z,18.28
2019-02-14T15:15:21.754Z,18.33
2019-02-14T15:17:39.494Z,18.31
2019-02-14T15:20:25.920Z,18.06
2019-02-14T15:22:53.493Z,18.06
2019-02-14T15:25:40.108Z,17.45
2019-02-14T15:28:07.649Z,17.45
2019-02-14T15:30:37.957Z,16.99
2019-02-14T15:33:05.599Z,16.47
2019-02-14T15:35:33.147Z,15.89
2019-02-14T15:40:35.121Z,14.82
2019-02-14T15:43:02.699Z,14.38
2019-02-14T15:46:01.890Z,14.00
2019-02-14T15:51:25.148Z,13.27
2019-02-14T15:53:52.775Z,12.60
2019-02-14T15:56:39.219Z,12.35
2019-02-14T15:59:06.793Z,12.35
2019-02-14T16:01:34.421Z,11.87
2019-02-14T16:04:20.753Z,11.87
2019-02-14T16:06:50.002Z,11.66
2019-02-14T16:09:17.535Z,11.49
2019-02-14T16:12:04.988Z,11.36
2019-02-14T16:14:34.190Z,11.27
2019-02-14T16:20:05.324Z,11.18
2019-02-14T16:22:04.399Z,11.05
2019-02-14T16:27:32.014Z,10.72
2019-02-14T16:29:58.797Z,10.54
2019-02-14T16:40:55.362Z,9.97
2019-02-14T16:46:15.388Z,9.86
2019-02-14T16:51:48.143Z,9.57
2019-02-14T16:54:15.714Z,9.57
2019-02-14T16:57:02.525Z,9.46
2019-02-14T16:59:30.178Z,9.39
2019-02-14T17:01:58.056Z,9.26
2019-02-14T17:04:25.659Z,9.15
2019-02-14T17:12:01.138Z,8.58
2019-02-14T17:14:28.717Z,8.34
2019-02-14T17:17:28.005Z,8.34
2019-02-14T17:19:44.321Z,8.11
2019-02-14T17:22:12.123Z,8.11
2019-02-14T17:24:39.723Z,7.99
2019-02-14T17:30:12.802Z,7.98
2019-02-14T17:35:28.530Z,7.98
2019-02-14T17:37:56.407Z,7.98
2019-02-14T17:43:16.976Z,7.68
2019-02-14T17:45:46.930Z,7.47
2019-02-14T17:48:33.236Z,7.47
2019-02-14T17:51:02.894Z,7.26
2019-02-14T17:53:49.163Z,7.06
2019-02-14T17:56:35.498Z,6.75
2019-02-14T17:59:22.240Z,6.75
2019-02-14T18:01:49.885Z,6.58
2019-02-14T18:09:40.757Z,6.19
2019-02-14T18:12:08.247Z,6.05
2019-02-14T18:14:37.803Z,6.05
2019-02-14T18:17:05.318Z,5.98
2019-02-14T18:19:33.259Z,5.94
2019-02-14T18:22:01.199Z,5.91
2019-02-14T18:24:31.297Z,5.76
2019-02-14T18:27:02.159Z,5.76
2019-02-14T18:29:30.136Z,5.65
2019-02-14T18:32:02.119Z,5.63
2019-02-14T18:34:27.275Z,5.63
2019-02-14T18:37:03.845Z,5.61
2019-02-14T18:39:31.725Z,5.61
2019-02-14T18:42:02.268Z,5.65
2019-02-14T18:44:32.849Z,5.66
2019-02-14T18:47:00.650Z,5.67
2019-02-14T18:49:28.227Z,5.67
2019-02-14T18:52:01.027Z,5.73
2019-02-14T18:54:29.680Z,5.88
2019-02-14T18:56:57.168Z,5.84
2019-02-14T18:59:42.053Z,5.73
2019-02-14T19:02:09.860Z,5.73
2019-02-14T19:04:37.392Z,5.33
2019-02-14T19:07:07.775Z,5.33
2019-02-14T19:09:35.522Z,5.08
2019-02-14T19:12:03.704Z,4.67
2019-02-14T19:14:34.242Z,4.52
2019-02-14T19:17:02.762Z,4.52
2019-02-14T19:19:33.806Z,4.54
2019-02-14T19:22:01.335Z,4.54
2019-02-14T19:24:38.106Z,4.81
2019-02-14T19:27:10.152Z,4.81
2019-02-14T19:29:36.361Z,4.79
2019-02-14T19:32:07.337Z,4.73
2019-02-14T19:34:39.778Z,4.73
2019-02-14T19:37:10.878Z,4.65
2019-02-14T19:39:38.737Z,4.61
2019-02-14T19:42:06.254Z,4.57
2019-02-14T19:44:33.808Z,4.57
2019-02-14T19:47:20.148Z,4.47
2019-02-14T19:49:50.710Z,4.36
2019-02-14T19:52:18.290Z,4.30
2019-02-14T19:55:04.659Z,4.22
2019-02-14T19:57:51.358Z,4.22
2019-02-14T20:03:26.796Z,4.22
2019-02-14T20:06:15.220Z,4.19
2019-02-14T20:08:51.428Z,4.20
2019-02-14T20:11:37.777Z,4.20
2019-02-14T20:16:40.673Z,4.11
2019-02-14T20:22:14.957Z,4.06
2019-02-14T20:24:42.474Z,4.04
2019-02-14T20:27:28.810Z,3.99
2019-02-14T20:30:07.999Z,3.92
2019-02-14T20:32:44.793Z,3.88
2019-02-14T20:35:31.201Z,3.73
2019-02-14T20:38:33.614Z,3.67
2019-02-14T20:40:49.351Z,3.59
2019-02-14T20:43:35.769Z,3.54
2019-02-14T20:49:10.129Z,3.53
2019-02-14T20:51:38.759Z,3.53
2019-02-14T20:57:02.356Z,3.39
2019-02-14T20:59:33.312Z,3.37
2019-02-14T21:02:00.894Z,3.31
2019-02-14T21:04:31.858Z,3.31
2019-02-14T21:06:59.692Z,3.20
2019-02-14T21:09:29.042Z,3.03
2019-02-14T21:11:56.628Z,3.03
2019-02-14T21:14:24.539Z,3.01
2019-02-14T21:16:52.047Z,2.97
2019-02-14T21:19:31.256Z,2.97
2019-02-14T21:22:17.872Z,2.98
2019-02-14T21:24:36.888Z,2.98
2019-02-14T21:27:04.497Z,2.89
2019-02-14T21:29:33.908Z,2.86
2019-02-14T21:32:03.159Z,2.84
2019-02-14T21:34:31.105Z,2.79
2019-02-14T21:36:59.030Z,2.79
2019-02-14T21:39:26.620Z,2.75
2019-02-14T21:42:17.457Z,2.75
2019-02-14T21:44:23.689Z,2.74
2019-02-14T21:46:51.336Z,2.74
2019-02-14T21:49:22.818Z,2.75
2019-02-14T21:51:50.037Z,2.73
2019-02-14T21:54:20.465Z,2.69
2019-02-14T21:56:50.045Z,2.69
2019-02-14T21:59:17.642Z,2.69
2019-02-14T22:01:50.096Z,2.72
2019-02-14T22:04:17.951Z,2.75
2019-02-14T22:06:45.577Z,2.75
2019-02-14T22:09:13.270Z,2.76
2019-02-14T22:11:41.167Z,2.79
2019-02-14T22:14:08.717Z,2.75
2019-02-14T22:16:36.278Z,2.68
2019-02-14T22:19:04.224Z,2.61
2019-02-14T22:21:31.895Z,2.57
2019-02-14T22:23:59.445Z,2.57
2019-02-14T22:26:27.319Z,2.54
2019-02-14T22:28:55.181Z,2.58
2019-02-14T22:34:09.472Z,2.63
2019-02-14T22:36:40.160Z,2.69
2019-02-14T22:39:26.587Z,2.82
2019-02-14T22:41:54.262Z,2.85
2019-02-14T22:44:22.163Z,2.85
2019-02-14T22:46:49.939Z,2.78
2019-02-14T22:49:17.541Z,2.78
2019-02-14T22:51:45.081Z,2.74
2019-02-14T22:54:31.449Z,2.67
2019-02-14T22:56:59.029Z,2.67
2019-02-14T22:59:45.306Z,2.62
2019-02-14T23:02:12.963Z,2.62
2019-02-14T23:04:40.846Z,2.65
2019-02-14T23:07:08.401Z,2.69
2019-02-14T23:09:38.770Z,2.72
2019-02-14T23:12:06.542Z,2.79
2019-02-14T23:17:45.103Z,2.78
2019-02-14T23:20:31.495Z,2.74
2019-02-14T23:23:18.089Z,2.74
2019-02-14T23:25:46.154Z,2.64
2019-02-14T23:28:13.821Z,2.64
2019-02-14T23:31:00.193Z,2.58
2019-02-14T23:33:27.791Z,2.58
2019-02-14T23:36:14.157Z,2.42
2019-02-14T23:41:36.620Z,2.34
2019-02-14T23:47:28.173Z,2.25
2019-02-14T23:49:57.390Z,2.23
2019-02-14T23:52:43.752Z,2.23
2019-02-14T23:55:30.139Z,2.22
2019-02-14T23:58:16.873Z,2.29
